sensor_id;sensor_type;location;lat;lon;timestamp;P1;durP1;ratioP1;P2;durP2;ratioP2
65477;SDS011;53678;39.642;22.430;2024-01-07T00:00:39;7.88;;;1.92;;
65477;SDS011;53678;39.642;22.430;2024-01-07T00:03:07;11.57;;;3.13;;
65477;SDS011;53678;39.642;22.430;2024-01-07T00:05:32;9.23;;;4.05;;
65477;SDS011;53678;39.642;22.430;2024-01-07T00:08:00;12.18;;;4.93;;
65477;SDS011;53678;39.642;22.430;2024-01-07T00:10:26;13.77;;;5.00;;
65477;SDS011;53678;39.642;22.430;2024-01-07T00:12:52;21.05;;;5.75;;
65477;SDS011;53678;39.642;22.430;2024-01-07T00:15:19;13.88;;;5.97;;
65477;SDS011;53678;39.642;22.430;2024-01-07T00:17:45;17.52;;;6.35;;
65477;SDS011;53678;39.642;22.430;2024-01-07T00:20:11;34.70;;;12.73;;
65477;SDS011;53678;39.642;22.430;2024-01-07T00:22:37;14.38;;;4.45;;
65477;SDS011;53678;39.642;22.430;2024-01-07T00:25:03;19.23;;;6.60;;
65477;SDS011;53678;39.642;22.430;2024-01-07T00:27:30;11.57;;;2.53;;
65477;SDS011;53678;39.642;22.430;2024-01-07T00:29:55;11.05;;;4.18;;
65477;SDS011;53678;39.642;22.430;2024-01-07T00:32:21;10.88;;;3.53;;
65477;SDS011;53678;39.642;22.430;2024-01-07T00:34:47;10.82;;;3.10;;
65477;SDS011;53678;39.642;22.430;2024-01-07T00:37:14;6.90;;;3.05;;
65477;SDS011;53678;39.642;22.430;2024-01-07T00:39:40;12.95;;;3.47;;
65477;SDS011;53678;39.642;22.430;2024-01-07T00:42:11;9.48;;;3.45;;
65477;SDS011;53678;39.642;22.430;2024-01-07T00:44:38;8.90;;;3.75;;
65477;SDS011;53678;39.642;22.430;2024-01-07T00:47:04;14.23;;;5.97;;
65477;SDS011;53678;39.642;22.430;2024-01-07T00:49:30;12.60;;;5.28;;
65477;SDS011;53678;39.642;22.430;2024-01-07T00:51:56;15.18;;;5.85;;
65477;SDS011;53678;39.642;22.430;2024-01-07T00:54:23;14.75;;;5.97;;
65477;SDS011;53678;39.642;22.430;2024-01-07T00:56:48;16.70;;;9.23;;
65477;SDS011;53678;39.642;22.430;2024-01-07T00:59:16;15.70;;;7.75;;
65477;SDS011;53678;39.642;22.430;2024-01-07T01:01:43;15.68;;;7.32;;
65477;SDS011;53678;39.642;22.430;2024-01-07T01:04:12;15.48;;;6.60;;
65477;SDS011;53678;39.642;22.430;2024-01-07T01:06:39;22.05;;;8.10;;
65477;SDS011;53678;39.642;22.430;2024-01-07T01:09:05;12.45;;;6.35;;
65477;SDS011;53678;39.642;22.430;2024-01-07T01:11:31;17.25;;;7.22;;
65477;SDS011;53678;39.642;22.430;2024-01-07T01:13:57;12.95;;;5.25;;
65477;SDS011;53678;39.642;22.430;2024-01-07T01:16:23;15.10;;;8.50;;
65477;SDS011;53678;39.642;22.430;2024-01-07T01:18:49;16.15;;;7.80;;
65477;SDS011;53678;39.642;22.430;2024-01-07T01:21:15;9.73;;;4.45;;
65477;SDS011;53678;39.642;22.430;2024-01-07T01:23:41;9.05;;;4.00;;
65477;SDS011;53678;39.642;22.430;2024-01-07T01:26:07;8.57;;;4.00;;
65477;SDS011;53678;39.642;22.430;2024-01-07T01:28:33;21.08;;;9.02;;
65477;SDS011;53678;39.642;22.430;2024-01-07T01:30:59;11.05;;;4.45;;
65477;SDS011;53678;39.642;22.430;2024-01-07T01:33:26;10.45;;;3.15;;
65477;SDS011;53678;39.642;22.430;2024-01-07T01:35:51;9.02;;;2.92;;
65477;SDS011;53678;39.642;22.430;2024-01-07T01:38:17;10.43;;;4.20;;
65477;SDS011;53678;39.642;22.430;2024-01-07T01:40:43;7.38;;;2.90;;
65477;SDS011;53678;39.642;22.430;2024-01-07T01:43:08;5.53;;;2.70;;
65477;SDS011;53678;39.642;22.430;2024-01-07T01:45:34;8.45;;;4.80;;
65477;SDS011;53678;39.642;22.430;2024-01-07T01:48:01;8.90;;;3.58;;
65477;SDS011;53678;39.642;22.430;2024-01-07T01:50:28;7.60;;;2.72;;
65477;SDS011;53678;39.642;22.430;2024-01-07T01:52:55;11.75;;;3.67;;
65477;SDS011;53678;39.642;22.430;2024-01-07T01:55:21;6.85;;;2.72;;
65477;SDS011;53678;39.642;22.430;2024-01-07T01:57:47;8.98;;;2.97;;
65477;SDS011;53678;39.642;22.430;2024-01-07T02:00:14;5.88;;;2.45;;
65477;SDS011;53678;39.642;22.430;2024-01-07T02:02:40;4.25;;;1.60;;
65477;SDS011;53678;39.642;22.430;2024-01-07T02:05:06;9.10;;;3.30;;
65477;SDS011;53678;39.642;22.430;2024-01-07T02:07:32;9.57;;;2.90;;
65477;SDS011;53678;39.642;22.430;2024-01-07T02:09:59;12.63;;;4.07;;
65477;SDS011;53678;39.642;22.430;2024-01-07T02:12:26;14.88;;;5.75;;
65477;SDS011;53678;39.642;22.430;2024-01-07T02:14:52;7.07;;;2.35;;
65477;SDS011;53678;39.642;22.430;2024-01-07T02:17:18;6.85;;;3.08;;
65477;SDS011;53678;39.642;22.430;2024-01-07T02:19:45;11.55;;;3.83;;
65477;SDS011;53678;39.642;22.430;2024-01-07T02:22:12;5.80;;;2.58;;
65477;SDS011;53678;39.642;22.430;2024-01-07T02:24:38;8.00;;;2.83;;
65477;SDS011;53678;39.642;22.430;2024-01-07T02:27:04;5.25;;;1.98;;
65477;SDS011;53678;39.642;22.430;2024-01-07T02:29:30;11.65;;;1.75;;
65477;SDS011;53678;39.642;22.430;2024-01-07T02:31:55;8.07;;;2.08;;
65477;SDS011;53678;39.642;22.430;2024-01-07T02:34:23;3.80;;;1.30;;
65477;SDS011;53678;39.642;22.430;2024-01-07T02:36:48;7.00;;;1.13;;
65477;SDS011;53678;39.642;22.430;2024-01-07T02:39:15;24.00;;;2.13;;
65477;SDS011;53678;39.642;22.430;2024-01-07T02:41:42;9.13;;;1.63;;
65477;SDS011;53678;39.642;22.430;2024-01-07T02:44:08;5.63;;;2.17;;
65477;SDS011;53678;39.642;22.430;2024-01-07T02:46:34;6.95;;;2.38;;
65477;SDS011;53678;39.642;22.430;2024-01-07T02:49:01;6.65;;;1.27;;
65477;SDS011;53678;39.642;22.430;2024-01-07T02:51:30;3.88;;;1.17;;
65477;SDS011;53678;39.642;22.430;2024-01-07T02:53:55;8.82;;;1.50;;
65477;SDS011;53678;39.642;22.430;2024-01-07T02:56:22;10.38;;;3.65;;
65477;SDS011;53678;39.642;22.430;2024-01-07T02:58:50;12.77;;;3.85;;
65477;SDS011;53678;39.642;22.430;2024-01-07T03:01:16;7.97;;;3.03;;
65477;SDS011;53678;39.642;22.430;2024-01-07T03:03:42;8.85;;;2.65;;
65477;SDS011;53678;39.642;22.430;2024-01-07T03:06:09;7.38;;;1.63;;
65477;SDS011;53678;39.642;22.430;2024-01-07T03:08:34;7.40;;;2.63;;
65477;SDS011;53678;39.642;22.430;2024-01-07T03:11:04;7.00;;;2.30;;
65477;SDS011;53678;39.642;22.430;2024-01-07T03:13:30;11.23;;;2.60;;
65477;SDS011;53678;39.642;22.430;2024-01-07T03:15:56;8.57;;;2.30;;
65477;SDS011;53678;39.642;22.430;2024-01-07T03:18:22;16.63;;;2.83;;
65477;SDS011;53678;39.642;22.430;2024-01-07T03:20:47;7.35;;;2.60;;
65477;SDS011;53678;39.642;22.430;2024-01-07T03:23:13;11.35;;;2.70;;
65477;SDS011;53678;39.642;22.430;2024-01-07T03:25:39;10.00;;;2.75;;
65477;SDS011;53678;39.642;22.430;2024-01-07T03:28:04;4.45;;;2.33;;
65477;SDS011;53678;39.642;22.430;2024-01-07T03:30:32;3.55;;;1.80;;
65477;SDS011;53678;39.642;22.430;2024-01-07T03:32:57;4.85;;;2.22;;
65477;SDS011;53678;39.642;22.430;2024-01-07T03:35:23;5.88;;;2.70;;
65477;SDS011;53678;39.642;22.430;2024-01-07T03:37:49;7.07;;;3.40;;
65477;SDS011;53678;39.642;22.430;2024-01-07T03:40:15;5.22;;;2.97;;
65477;SDS011;53678;39.642;22.430;2024-01-07T03:42:41;9.15;;;2.88;;
65477;SDS011;53678;39.642;22.430;2024-01-07T03:45:07;8.52;;;2.28;;
65477;SDS011;53678;39.642;22.430;2024-01-07T03:47:32;5.28;;;2.20;;
65477;SDS011;53678;39.642;22.430;2024-01-07T03:49:58;7.72;;;2.20;;
65477;SDS011;53678;39.642;22.430;2024-01-07T03:52:24;7.50;;;2.40;;
65477;SDS011;53678;39.642;22.430;2024-01-07T03:54:50;7.20;;;2.50;;
65477;SDS011;53678;39.642;22.430;2024-01-07T03:57:15;6.05;;;2.17;;
65477;SDS011;53678;39.642;22.430;2024-01-07T03:59:41;6.70;;;1.90;;
65477;SDS011;53678;39.642;22.430;2024-01-07T04:02:07;7.05;;;1.98;;
65477;SDS011;53678;39.642;22.430;2024-01-07T04:04:32;4.75;;;1.90;;
65477;SDS011;53678;39.642;22.430;2024-01-07T04:06:59;4.63;;;2.28;;
65477;SDS011;53678;39.642;22.430;2024-01-07T04:09:25;6.70;;;2.75;;
65477;SDS011;53678;39.642;22.430;2024-01-07T04:11:51;7.00;;;2.85;;
65477;SDS011;53678;39.642;22.430;2024-01-07T04:14:18;4.93;;;2.05;;
65477;SDS011;53678;39.642;22.430;2024-01-07T04:16:43;7.43;;;2.33;;
65477;SDS011;53678;39.642;22.430;2024-01-07T04:19:09;12.20;;;3.72;;
65477;SDS011;53678;39.642;22.430;2024-01-07T04:21:35;7.97;;;4.43;;
65477;SDS011;53678;39.642;22.430;2024-01-07T04:24:01;7.93;;;5.15;;
65477;SDS011;53678;39.642;22.430;2024-01-07T04:26:27;7.07;;;4.20;;
65477;SDS011;53678;39.642;22.430;2024-01-07T04:28:52;7.32;;;2.15;;
65477;SDS011;53678;39.642;22.430;2024-01-07T04:31:18;5.60;;;2.38;;
65477;SDS011;53678;39.642;22.430;2024-01-07T04:33:44;6.88;;;2.90;;
65477;SDS011;53678;39.642;22.430;2024-01-07T04:36:10;5.72;;;2.30;;
65477;SDS011;53678;39.642;22.430;2024-01-07T04:38:36;7.20;;;2.83;;
65477;SDS011;53678;39.642;22.430;2024-01-07T04:41:02;16.33;;;3.50;;
65477;SDS011;53678;39.642;22.430;2024-01-07T04:43:28;11.07;;;3.70;;
65477;SDS011;53678;39.642;22.430;2024-01-07T04:45:54;8.75;;;4.32;;
65477;SDS011;53678;39.642;22.430;2024-01-07T04:48:20;7.07;;;3.65;;
65477;SDS011;53678;39.642;22.430;2024-01-07T04:50:47;8.60;;;3.60;;
65477;SDS011;53678;39.642;22.430;2024-01-07T04:53:13;7.55;;;2.50;;
65477;SDS011;53678;39.642;22.430;2024-01-07T04:55:39;9.15;;;3.50;;
65477;SDS011;53678;39.642;22.430;2024-01-07T04:58:05;7.32;;;2.97;;
65477;SDS011;53678;39.642;22.430;2024-01-07T05:00:30;8.38;;;3.22;;
65477;SDS011;53678;39.642;22.430;2024-01-07T05:02:56;7.40;;;3.00;;
65477;SDS011;53678;39.642;22.430;2024-01-07T05:05:22;4.00;;;2.00;;
65477;SDS011;53678;39.642;22.430;2024-01-07T05:07:48;6.05;;;2.28;;
65477;SDS011;53678;39.642;22.430;2024-01-07T05:10:13;8.43;;;2.53;;
65477;SDS011;53678;39.642;22.430;2024-01-07T05:12:40;11.38;;;3.63;;
65477;SDS011;53678;39.642;22.430;2024-01-07T05:15:07;12.23;;;3.88;;
65477;SDS011;53678;39.642;22.430;2024-01-07T05:17:33;9.95;;;3.58;;
65477;SDS011;53678;39.642;22.430;2024-01-07T05:19:58;10.20;;;3.00;;
65477;SDS011;53678;39.642;22.430;2024-01-07T05:22:24;14.68;;;8.52;;
65477;SDS011;53678;39.642;22.430;2024-01-07T05:24:50;7.20;;;2.00;;
65477;SDS011;53678;39.642;22.430;2024-01-07T05:27:15;11.38;;;4.60;;
65477;SDS011;53678;39.642;22.430;2024-01-07T05:29:46;13.10;;;7.20;;
65477;SDS011;53678;39.642;22.430;2024-01-07T05:32:12;5.82;;;3.10;;
65477;SDS011;53678;39.642;22.430;2024-01-07T05:34:38;8.30;;;3.30;;
65477;SDS011;53678;39.642;22.430;2024-01-07T05:37:04;8.05;;;3.20;;
65477;SDS011;53678;39.642;22.430;2024-01-07T05:39:30;6.63;;;3.80;;
65477;SDS011;53678;39.642;22.430;2024-01-07T05:41:56;8.25;;;3.50;;
65477;SDS011;53678;39.642;22.430;2024-01-07T05:44:23;8.15;;;3.15;;
65477;SDS011;53678;39.642;22.430;2024-01-07T05:46:49;8.15;;;4.10;;
65477;SDS011;53678;39.642;22.430;2024-01-07T05:49:14;9.30;;;4.55;;
65477;SDS011;53678;39.642;22.430;2024-01-07T05:51:42;14.25;;;5.47;;
65477;SDS011;53678;39.642;22.430;2024-01-07T05:54:07;8.75;;;4.13;;
65477;SDS011;53678;39.642;22.430;2024-01-07T05:56:38;6.70;;;3.45;;
65477;SDS011;53678;39.642;22.430;2024-01-07T05:59:05;9.18;;;3.10;;
65477;SDS011;53678;39.642;22.430;2024-01-07T06:01:33;7.50;;;2.90;;
65477;SDS011;53678;39.642;22.430;2024-01-07T06:03:59;9.75;;;4.28;;
65477;SDS011;53678;39.642;22.430;2024-01-07T06:06:26;11.65;;;5.07;;
65477;SDS011;53678;39.642;22.430;2024-01-07T06:08:53;9.90;;;5.35;;
65477;SDS011;53678;39.642;22.430;2024-01-07T06:11:19;10.25;;;4.97;;
65477;SDS011;53678;39.642;22.430;2024-01-07T06:13:46;10.57;;;4.15;;
65477;SDS011;53678;39.642;22.430;2024-01-07T06:16:13;9.40;;;3.78;;
65477;SDS011;53678;39.642;22.430;2024-01-07T06:18:39;7.03;;;3.78;;
65477;SDS011;53678;39.642;22.430;2024-01-07T06:21:05;7.30;;;3.80;;
65477;SDS011;53678;39.642;22.430;2024-01-07T06:23:34;7.90;;;4.15;;
65477;SDS011;53678;39.642;22.430;2024-01-07T06:26:02;11.57;;;4.40;;
65477;SDS011;53678;39.642;22.430;2024-01-07T06:28:28;8.13;;;3.83;;
65477;SDS011;53678;39.642;22.430;2024-01-07T06:30:54;13.68;;;5.55;;
65477;SDS011;53678;39.642;22.430;2024-01-07T06:33:20;10.77;;;4.93;;
65477;SDS011;53678;39.642;22.430;2024-01-07T06:35:46;9.80;;;4.68;;
65477;SDS011;53678;39.642;22.430;2024-01-07T06:38:12;12.98;;;5.22;;
65477;SDS011;53678;39.642;22.430;2024-01-07T06:40:37;16.90;;;5.30;;
65477;SDS011;53678;39.642;22.430;2024-01-07T06:43:03;9.25;;;4.75;;
65477;SDS011;53678;39.642;22.430;2024-01-07T06:45:29;11.88;;;4.95;;
65477;SDS011;53678;39.642;22.430;2024-01-07T06:47:57;12.30;;;5.57;;
65477;SDS011;53678;39.642;22.430;2024-01-07T06:50:23;14.05;;;5.32;;
65477;SDS011;53678;39.642;22.430;2024-01-07T06:52:49;10.25;;;5.40;;
65477;SDS011;53678;39.642;22.430;2024-01-07T06:55:14;7.97;;;5.00;;
65477;SDS011;53678;39.642;22.430;2024-01-07T06:57:40;10.15;;;4.93;;
65477;SDS011;53678;39.642;22.430;2024-01-07T07:00:07;12.07;;;5.07;;
65477;SDS011;53678;39.642;22.430;2024-01-07T07:02:34;9.10;;;4.90;;
65477;SDS011;53678;39.642;22.430;2024-01-07T07:05:01;13.82;;;6.78;;
65477;SDS011;53678;39.642;22.430;2024-01-07T07:07:27;11.82;;;7.03;;
65477;SDS011;53678;39.642;22.430;2024-01-07T07:09:55;12.25;;;6.65;;
65477;SDS011;53678;39.642;22.430;2024-01-07T07:12:20;13.68;;;6.60;;
65477;SDS011;53678;39.642;22.430;2024-01-07T07:14:46;17.38;;;8.32;;
65477;SDS011;53678;39.642;22.430;2024-01-07T07:17:13;21.27;;;12.15;;
65477;SDS011;53678;39.642;22.430;2024-01-07T07:19:39;18.95;;;9.93;;
65477;SDS011;53678;39.642;22.430;2024-01-07T07:22:06;21.08;;;11.80;;
65477;SDS011;53678;39.642;22.430;2024-01-07T07:24:31;23.05;;;12.65;;
65477;SDS011;53678;39.642;22.430;2024-01-07T07:26:57;29.48;;;15.90;;
65477;SDS011;53678;39.642;22.430;2024-01-07T07:29:23;29.40;;;14.50;;
65477;SDS011;53678;39.642;22.430;2024-01-07T07:31:48;23.52;;;13.32;;
65477;SDS011;53678;39.642;22.430;2024-01-07T07:34:14;20.27;;;12.43;;
65477;SDS011;53678;39.642;22.430;2024-01-07T07:36:41;20.25;;;10.15;;
65477;SDS011;53678;39.642;22.430;2024-01-07T07:39:08;16.85;;;9.52;;
65477;SDS011;53678;39.642;22.430;2024-01-07T07:41:34;16.52;;;10.13;;
65477;SDS011;53678;39.642;22.430;2024-01-07T07:44:01;22.10;;;12.23;;
65477;SDS011;53678;39.642;22.430;2024-01-07T07:46:27;23.48;;;12.88;;
65477;SDS011;53678;39.642;22.430;2024-01-07T07:48:53;22.27;;;10.82;;
65477;SDS011;53678;39.642;22.430;2024-01-07T07:51:18;19.40;;;12.15;;
65477;SDS011;53678;39.642;22.430;2024-01-07T07:53:45;19.50;;;10.55;;
65477;SDS011;53678;39.642;22.430;2024-01-07T07:56:12;21.50;;;11.95;;
65477;SDS011;53678;39.642;22.430;2024-01-07T07:58:38;22.58;;;12.38;;
65477;SDS011;53678;39.642;22.430;2024-01-07T08:01:05;18.08;;;9.88;;
65477;SDS011;53678;39.642;22.430;2024-01-07T08:03:31;18.92;;;9.98;;
65477;SDS011;53678;39.642;22.430;2024-01-07T08:05:58;23.55;;;12.32;;
65477;SDS011;53678;39.642;22.430;2024-01-07T08:08:23;21.38;;;13.52;;
65477;SDS011;53678;39.642;22.430;2024-01-07T08:10:49;30.25;;;12.68;;
65477;SDS011;53678;39.642;22.430;2024-01-07T08:13:15;18.52;;;12.23;;
65477;SDS011;53678;39.642;22.430;2024-01-07T08:15:41;34.53;;;15.38;;
65477;SDS011;53678;39.642;22.430;2024-01-07T08:18:08;18.92;;;9.68;;
65477;SDS011;53678;39.642;22.430;2024-01-07T08:20:35;22.35;;;11.43;;
65477;SDS011;53678;39.642;22.430;2024-01-07T08:23:01;16.92;;;8.10;;
65477;SDS011;53678;39.642;22.430;2024-01-07T08:25:27;14.07;;;8.10;;
65477;SDS011;53678;39.642;22.430;2024-01-07T08:27:53;12.90;;;7.15;;
65477;SDS011;53678;39.642;22.430;2024-01-07T08:30:20;17.00;;;8.98;;
65477;SDS011;53678;39.642;22.430;2024-01-07T08:32:45;18.38;;;9.95;;
65477;SDS011;53678;39.642;22.430;2024-01-07T08:35:11;15.50;;;7.97;;
65477;SDS011;53678;39.642;22.430;2024-01-07T08:37:37;14.88;;;10.02;;
65477;SDS011;53678;39.642;22.430;2024-01-07T08:40:03;23.92;;;13.63;;
65477;SDS011;53678;39.642;22.430;2024-01-07T08:42:32;24.90;;;14.05;;
65477;SDS011;53678;39.642;22.430;2024-01-07T08:44:59;23.13;;;13.80;;
65477;SDS011;53678;39.642;22.430;2024-01-07T08:47:26;22.17;;;12.07;;
65477;SDS011;53678;39.642;22.430;2024-01-07T08:49:54;18.38;;;9.73;;
65477;SDS011;53678;39.642;22.430;2024-01-07T08:52:20;11.27;;;6.75;;
65477;SDS011;53678;39.642;22.430;2024-01-07T08:54:45;16.25;;;6.57;;
65477;SDS011;53678;39.642;22.430;2024-01-07T08:57:12;14.50;;;7.80;;
65477;SDS011;53678;39.642;22.430;2024-01-07T08:59:37;16.95;;;8.20;;
65477;SDS011;53678;39.642;22.430;2024-01-07T09:02:04;20.90;;;8.73;;
65477;SDS011;53678;39.642;22.430;2024-01-07T09:04:30;21.60;;;9.23;;
65477;SDS011;53678;39.642;22.430;2024-01-07T09:06:58;20.15;;;8.98;;
65477;SDS011;53678;39.642;22.430;2024-01-07T09:09:24;15.05;;;7.88;;
65477;SDS011;53678;39.642;22.430;2024-01-07T09:11:51;17.02;;;9.25;;
65477;SDS011;53678;39.642;22.430;2024-01-07T09:14:18;21.55;;;10.02;;
65477;SDS011;53678;39.642;22.430;2024-01-07T09:16:44;20.27;;;11.77;;
65477;SDS011;53678;39.642;22.430;2024-01-07T09:19:10;19.52;;;11.05;;
65477;SDS011;53678;39.642;22.430;2024-01-07T09:21:38;24.08;;;11.15;;
65477;SDS011;53678;39.642;22.430;2024-01-07T09:24:05;25.08;;;12.82;;
65477;SDS011;53678;39.642;22.430;2024-01-07T09:26:31;21.60;;;11.13;;
65477;SDS011;53678;39.642;22.430;2024-01-07T09:28:56;19.92;;;11.32;;
65477;SDS011;53678;39.642;22.430;2024-01-07T09:31:22;25.30;;;11.52;;
65477;SDS011;53678;39.642;22.430;2024-01-07T09:33:49;26.67;;;13.38;;
65477;SDS011;53678;39.642;22.430;2024-01-07T09:36:14;26.73;;;13.05;;
65477;SDS011;53678;39.642;22.430;2024-01-07T09:38:41;20.83;;;11.60;;
65477;SDS011;53678;39.642;22.430;2024-01-07T09:41:07;20.70;;;10.90;;
65477;SDS011;53678;39.642;22.430;2024-01-07T09:43:35;28.65;;;11.45;;
65477;SDS011;53678;39.642;22.430;2024-01-07T09:46:02;22.27;;;13.95;;
65477;SDS011;53678;39.642;22.430;2024-01-07T09:48:28;18.88;;;10.88;;
65477;SDS011;53678;39.642;22.430;2024-01-07T09:50:56;25.98;;;12.57;;
65477;SDS011;53678;39.642;22.430;2024-01-07T09:53:24;20.05;;;12.48;;
65477;SDS011;53678;39.642;22.430;2024-01-07T09:55:59;19.60;;;11.38;;
65477;SDS011;53678;39.642;22.430;2024-01-07T09:58:32;19.95;;;9.38;;
65477;SDS011;53678;39.642;22.430;2024-01-07T10:00:57;23.73;;;8.05;;
65477;SDS011;53678;39.642;22.430;2024-01-07T10:03:26;21.77;;;8.80;;
65477;SDS011;53678;39.642;22.430;2024-01-07T10:05:54;15.60;;;8.02;;
65477;SDS011;53678;39.642;22.430;2024-01-07T10:08:20;16.48;;;6.93;;
65477;SDS011;53678;39.642;22.430;2024-01-07T10:10:48;12.15;;;5.10;;
65477;SDS011;53678;39.642;22.430;2024-01-07T10:13:15;12.38;;;3.78;;
65477;SDS011;53678;39.642;22.430;2024-01-07T10:15:44;10.40;;;3.17;;
65477;SDS011;53678;39.642;22.430;2024-01-07T10:18:09;11.27;;;3.25;;
65477;SDS011;53678;39.642;22.430;2024-01-07T10:20:36;12.70;;;5.40;;
65477;SDS011;53678;39.642;22.430;2024-01-07T10:23:03;13.57;;;5.22;;
65477;SDS011;53678;39.642;22.430;2024-01-07T10:25:32;7.75;;;2.38;;
65477;SDS011;53678;39.642;22.430;2024-01-07T10:27:59;9.13;;;2.47;;
65477;SDS011;53678;39.642;22.430;2024-01-07T10:30:29;11.63;;;4.20;;
65477;SDS011;53678;39.642;22.430;2024-01-07T10:32:58;18.63;;;5.47;;
65477;SDS011;53678;39.642;22.430;2024-01-07T10:35:29;14.55;;;4.53;;
65477;SDS011;53678;39.642;22.430;2024-01-07T10:38:02;6.78;;;3.22;;
65477;SDS011;53678;39.642;22.430;2024-01-07T10:40:30;11.23;;;3.83;;
65477;SDS011;53678;39.642;22.430;2024-01-07T10:43:18;9.02;;;3.38;;
65477;SDS011;53678;39.642;22.430;2024-01-07T10:45:47;13.20;;;5.78;;
65477;SDS011;53678;39.642;22.430;2024-01-07T10:48:19;9.35;;;4.65;;
65477;SDS011;53678;39.642;22.430;2024-01-07T10:50:45;12.25;;;4.32;;
65477;SDS011;53678;39.642;22.430;2024-01-07T10:53:17;14.48;;;4.03;;
65477;SDS011;53678;39.642;22.430;2024-01-07T10:55:57;10.32;;;3.88;;
65477;SDS011;53678;39.642;22.430;2024-01-07T10:58:26;13.40;;;3.45;;
65477;SDS011;53678;39.642;22.430;2024-01-07T11:00:51;9.45;;;3.20;;
65477;SDS011;53678;39.642;22.430;2024-01-07T11:03:28;13.35;;;2.65;;
65477;SDS011;53678;39.642;22.430;2024-01-07T11:06:03;9.23;;;2.95;;
65477;SDS011;53678;39.642;22.430;2024-01-07T11:11:37;11.50;;;2.92;;
65477;SDS011;53678;39.642;22.430;2024-01-07T11:17:12;13.07;;;2.80;;
65477;SDS011;53678;39.642;22.430;2024-01-07T11:19:40;8.50;;;2.30;;
65477;SDS011;53678;39.642;22.430;2024-01-07T11:22:24;10.10;;;3.55;;
65477;SDS011;53678;39.642;22.430;2024-01-07T11:24:53;13.00;;;5.20;;
65477;SDS011;53678;39.642;22.430;2024-01-07T11:27:23;16.33;;;6.85;;
65477;SDS011;53678;39.642;22.430;2024-01-07T11:29:53;15.52;;;6.22;;
65477;SDS011;53678;39.642;22.430;2024-01-07T11:32:21;11.82;;;6.13;;
65477;SDS011;53678;39.642;22.430;2024-01-07T11:35:07;16.67;;;7.40;;
65477;SDS011;53678;39.642;22.430;2024-01-07T11:37:33;13.93;;;6.30;;
65477;SDS011;53678;39.642;22.430;2024-01-07T11:40:03;13.52;;;5.57;;
65477;SDS011;53678;39.642;22.430;2024-01-07T11:42:31;15.27;;;5.82;;
65477;SDS011;53678;39.642;22.430;2024-01-07T11:44:57;12.77;;;5.43;;
65477;SDS011;53678;39.642;22.430;2024-01-07T11:47:24;10.13;;;4.47;;
65477;SDS011;53678;39.642;22.430;2024-01-07T11:49:55;10.68;;;4.55;;
65477;SDS011;53678;39.642;22.430;2024-01-07T11:52:20;12.15;;;5.30;;
65477;SDS011;53678;39.642;22.430;2024-01-07T11:54:47;18.40;;;8.95;;
65477;SDS011;53678;39.642;22.430;2024-01-07T11:57:13;19.10;;;8.10;;
65477;SDS011;53678;39.642;22.430;2024-01-07T11:59:39;11.48;;;5.88;;
65477;SDS011;53678;39.642;22.430;2024-01-07T12:02:05;17.77;;;7.90;;
65477;SDS011;53678;39.642;22.430;2024-01-07T12:04:33;27.30;;;12.70;;
65477;SDS011;53678;39.642;22.430;2024-01-07T12:07:00;15.60;;;6.50;;
65477;SDS011;53678;39.642;22.430;2024-01-07T12:09:28;19.05;;;8.27;;
65477;SDS011;53678;39.642;22.430;2024-01-07T12:11:55;24.48;;;11.07;;
65477;SDS011;53678;39.642;22.430;2024-01-07T12:14:22;16.50;;;6.43;;
65477;SDS011;53678;39.642;22.430;2024-01-07T12:16:48;19.67;;;10.52;;
65477;SDS011;53678;39.642;22.430;2024-01-07T12:19:14;9.57;;;5.47;;
65477;SDS011;53678;39.642;22.430;2024-01-07T12:21:40;13.02;;;5.18;;
65477;SDS011;53678;39.642;22.430;2024-01-07T12:24:05;8.13;;;4.40;;
65477;SDS011;53678;39.642;22.430;2024-01-07T12:26:31;8.63;;;5.22;;
65477;SDS011;53678;39.642;22.430;2024-01-07T12:29:00;16.83;;;8.23;;
65477;SDS011;53678;39.642;22.430;2024-01-07T12:31:32;17.35;;;6.55;;
65477;SDS011;53678;39.642;22.430;2024-01-07T12:33:59;13.23;;;6.07;;
65477;SDS011;53678;39.642;22.430;2024-01-07T12:36:29;12.90;;;6.47;;
65477;SDS011;53678;39.642;22.430;2024-01-07T12:38:57;9.88;;;5.28;;
65477;SDS011;53678;39.642;22.430;2024-01-07T12:41:23;16.23;;;5.63;;
65477;SDS011;53678;39.642;22.430;2024-01-07T12:43:51;11.23;;;4.78;;
65477;SDS011;53678;39.642;22.430;2024-01-07T12:46:16;11.35;;;5.05;;
65477;SDS011;53678;39.642;22.430;2024-01-07T12:48:44;14.32;;;5.13;;
65477;SDS011;53678;39.642;22.430;2024-01-07T12:51:09;11.40;;;6.07;;
65477;SDS011;53678;39.642;22.430;2024-01-07T12:53:38;15.50;;;7.05;;
65477;SDS011;53678;39.642;22.430;2024-01-07T12:56:07;13.10;;;6.22;;
65477;SDS011;53678;39.642;22.430;2024-01-07T12:58:33;12.45;;;5.35;;
65477;SDS011;53678;39.642;22.430;2024-01-07T13:01:00;17.85;;;9.38;;
65477;SDS011;53678;39.642;22.430;2024-01-07T13:03:26;29.67;;;16.05;;
65477;SDS011;53678;39.642;22.430;2024-01-07T13:05:52;23.23;;;13.35;;
65477;SDS011;53678;39.642;22.430;2024-01-07T13:08:19;12.30;;;5.50;;
65477;SDS011;53678;39.642;22.430;2024-01-07T13:13:19;24.55;;;12.55;;
65477;SDS011;53678;39.642;22.430;2024-01-07T13:15:47;9.63;;;4.53;;
65477;SDS011;53678;39.642;22.430;2024-01-07T13:18:16;9.05;;;4.18;;
65477;SDS011;53678;39.642;22.430;2024-01-07T13:20:42;10.07;;;3.50;;
65477;SDS011;53678;39.642;22.430;2024-01-07T13:23:08;8.20;;;3.42;;
65477;SDS011;53678;39.642;22.430;2024-01-07T13:25:33;10.27;;;4.30;;
65477;SDS011;53678;39.642;22.430;2024-01-07T13:27:59;6.78;;;3.75;;
65477;SDS011;53678;39.642;22.430;2024-01-07T13:30:25;5.82;;;2.92;;
65477;SDS011;53678;39.642;22.430;2024-01-07T13:32:51;4.82;;;2.38;;
65477;SDS011;53678;39.642;22.430;2024-01-07T13:35:22;5.05;;;1.90;;
65477;SDS011;53678;39.642;22.430;2024-01-07T13:37:51;5.15;;;2.60;;
65477;SDS011;53678;39.642;22.430;2024-01-07T13:40:17;6.82;;;3.45;;
65477;SDS011;53678;39.642;22.430;2024-01-07T13:42:43;7.45;;;3.97;;
65477;SDS011;53678;39.642;22.430;2024-01-07T13:45:09;9.02;;;4.18;;
65477;SDS011;53678;39.642;22.430;2024-01-07T13:47:38;7.85;;;4.97;;
65477;SDS011;53678;39.642;22.430;2024-01-07T13:50:04;8.70;;;4.97;;
65477;SDS011;53678;39.642;22.430;2024-01-07T13:52:32;5.10;;;3.10;;
65477;SDS011;53678;39.642;22.430;2024-01-07T13:54:58;8.57;;;3.60;;
65477;SDS011;53678;39.642;22.430;2024-01-07T13:57:24;4.60;;;2.65;;
65477;SDS011;53678;39.642;22.430;2024-01-07T13:59:52;4.75;;;2.97;;
65477;SDS011;53678;39.642;22.430;2024-01-07T14:02:19;8.57;;;5.72;;
65477;SDS011;53678;39.642;22.430;2024-01-07T14:04:48;11.52;;;6.38;;
65477;SDS011;53678;39.642;22.430;2024-01-07T14:07:21;16.45;;;7.60;;
65477;SDS011;53678;39.642;22.430;2024-01-07T14:09:47;13.30;;;7.22;;
65477;SDS011;53678;39.642;22.430;2024-01-07T14:12:14;14.25;;;5.95;;
65477;SDS011;53678;39.642;22.430;2024-01-07T14:14:39;9.35;;;5.50;;
65477;SDS011;53678;39.642;22.430;2024-01-07T14:17:05;7.05;;;3.90;;
65477;SDS011;53678;39.642;22.430;2024-01-07T14:19:32;10.18;;;4.53;;
65477;SDS011;53678;39.642;22.430;2024-01-07T14:21:58;18.08;;;9.80;;
65477;SDS011;53678;39.642;22.430;2024-01-07T14:24:26;9.80;;;5.63;;
65477;SDS011;53678;39.642;22.430;2024-01-07T14:26:52;11.82;;;6.05;;
65477;SDS011;53678;39.642;22.430;2024-01-07T14:29:17;7.97;;;5.55;;
65477;SDS011;53678;39.642;22.430;2024-01-07T14:31:43;8.57;;;5.03;;